»·PEaware :: SWA1922 KSNA-KLAS

SWA1922 :: KSNA-KLAS

FLIGHT INFORMATION

Flight Status: Arrived
Operator:
Southwest Airlines
More flights by this operator :: More flights under this callsign
Pilot: Ben F. (2808)
Aircraft: BOEING 737-300
(B733)
More flights by this aircraft type
Origin: KSNA John Wayne-Orange Co
United States
Destination: KLAS McCarran Intl
United States
More flights between these airports :: More routes between these airports
Route: FINZZ2 MISEN KEPEC6
File this flight plan on PilotEdge
Remarks:
Altitude:
(Current/Filed)
29,000ft
Speed:
(Current/Filed)
434kts
Departed: 12-Apr-18 08:18 AM
Arrived: 12-Apr-18 09:02 AM
Distance/Time
Traveled:
197nm/0:44
Distance/Time
To Go:
Arrived

Flight Plot

Page will automatically refresh every two minutes.

Flight plan parsing failed; only flown route is shown


Map Options




Map Legend


Flown Route
Filed Route
Departure Airport
Arrival Airport
Navaid (VOR, NDB)
Fix

Horizontal Profiles

Position Reports

Time Latitude Longitude Heading Altitude Ground
Speed
12-Apr-18 08:02 33.676737 -117.863977 117 63ft 0kts
12-Apr-18 08:03 33.676737 -117.863977 117 63ft 0kts
12-Apr-18 08:04 33.676737 -117.863977 117 63ft 0kts
12-Apr-18 08:05 33.676737 -117.863977 117 63ft 0kts
12-Apr-18 08:06 33.676737 -117.863977 117 63ft 0kts
12-Apr-18 08:07 33.676737 -117.863977 117 63ft 0kts
12-Apr-18 08:08 33.676737 -117.863977 117 63ft 0kts
12-Apr-18 08:09 33.676737 -117.863977 117 63ft 0kts
12-Apr-18 08:10 33.676869 -117.864281 117 63ft 2kts
12-Apr-18 08:11 33.676868 -117.864719 24 63ft 1kts
12-Apr-18 08:12 33.676843 -117.864733 27 63ft 0kts
12-Apr-18 08:13 33.676879 -117.864711 27 63ft 1kts
12-Apr-18 08:14 33.679227 -117.863217 27 63ft 15kts
12-Apr-18 08:15 33.680688 -117.863132 297 63ft 0kts
12-Apr-18 08:16 33.681470 -117.864930 284 63ft 9kts
12-Apr-18 08:17 33.669415 -117.872827 208 102ft 156kts
12-Apr-18 08:18 33.618883 -117.888130 186 2019ft 228kts
12-Apr-18 08:19 33.556510 -117.915836 226 4863ft 258kts
12-Apr-18 08:20 33.499669 -117.988459 256 7897ft 253kts
12-Apr-18 08:21 33.519082 -118.050205 308 9881ft 254kts
12-Apr-18 08:22 33.575414 -118.112684 332 12129ft 306kts
12-Apr-18 08:23 33.659513 -118.089038 17 14606ft 359kts
12-Apr-18 08:24 33.749210 -118.036656 17 17001ft 374kts
12-Apr-18 08:25 33.842722 -117.982073 16 19182ft 388kts
12-Apr-18 08:26 33.938109 -117.916725 29 20876ft 423kts
12-Apr-18 08:27 34.033460 -117.828599 28 22607ft 441kts
12-Apr-18 08:28 34.124028 -117.727710 45 23976ft 469kts
12-Apr-18 08:29 34.204543 -117.607004 43 24149ft 469kts
12-Apr-18 08:30 34.288019 -117.482849 44 25817ft 482kts
12-Apr-18 08:31 34.371970 -117.357156 43 27546ft 489kts
12-Apr-18 08:32 34.454888 -117.232662 44 28815ft 500kts
12-Apr-18 08:33 34.538959 -117.105971 44 29052ft 501kts
12-Apr-18 08:34 34.626294 -116.978621 45 29050ft 510kts
12-Apr-18 08:35 34.717191 -116.845983 46 28998ft 515kts
12-Apr-18 08:36 34.808223 -116.712605 46 28994ft 514kts
12-Apr-18 08:37 34.907682 -116.591607 30 28999ft 504kts
12-Apr-18 08:38 35.017487 -116.486622 32 26173ft 504kts
12-Apr-18 08:39 35.117656 -116.385950 39 24009ft 460kts
12-Apr-18 08:40 35.194373 -116.288833 40 23470ft 420kts
12-Apr-18 08:41 35.278372 -116.183393 40 23520ft 424kts
12-Apr-18 08:42 35.362594 -116.077502 40 22026ft 444kts
12-Apr-18 08:43 35.446951 -115.970954 40 19566ft 429kts
12-Apr-18 08:44 35.526059 -115.870734 40 17289ft 391kts
12-Apr-18 08:45 35.599184 -115.777928 40 15310ft 374kts
12-Apr-18 08:46 35.668177 -115.690025 41 13174ft 341kts
12-Apr-18 08:47 35.729118 -115.611622 40 13002ft 316kts
12-Apr-18 08:48 35.776779 -115.520881 61 12759ft 330kts
12-Apr-18 08:49 35.815812 -115.422760 57 10950ft 312kts
12-Apr-18 08:50 35.856112 -115.332853 58 9198ft 311kts
12-Apr-18 08:51 35.896453 -115.244703 57 7848ft 284kts
12-Apr-18 08:52 35.935001 -115.160603 60 7031ft 282kts
12-Apr-18 08:53 35.968313 -115.076123 84 6946ft 289kts
12-Apr-18 08:54 35.969753 -114.981940 92 6266ft 280kts
12-Apr-18 08:55 35.996352 -114.905116 9 6047ft 252kts
12-Apr-18 08:56 36.056912 -114.925669 324 5252ft 235kts
12-Apr-18 08:57 36.073686 -114.984932 266 4986ft 184kts
12-Apr-18 08:58 36.075000 -115.044358 265 3297ft 170kts
12-Apr-18 08:59 36.074260 -115.093639 264 2677ft 130kts
12-Apr-18 09:00 36.073598 -115.136435 269 2148ft 85kts
12-Apr-18 09:01 36.075933 -115.146565 0 2148ft 18kts
12-Apr-18 09:02 36.079154 -115.146035 1 2148ft 8kts
12-Apr-18 09:03 36.079781 -115.146267 340 2148ft 0kts

Navigation Log

Ident Type
Flight plan parsing failed, navigation log unavailable